Time,TemperatureF,DewpointF,PressureIn,WindDirection,WindDirectionDegrees,WindSpeedMPH,WindSpeedGustMPH,Humidity,HourlyPrecipIn,Conditions,Clouds,dailyrainin,SoftwareType,DateUTC
2013-10-24 00:22:00,31.0,29.0,-100.00,North,5,2.0,5.0,91,0.00,,,-99.99,,2013-10-24 05:22:00,
2013-10-24 01:42:00,33.0,31.0,-100.00,NNW,345,5.0,9.0,91,0.00,,,-99.99,,2013-10-24 06:42:00,
2013-10-24 02:42:00,34.0,32.0,-100.00,North,5,6.0,9.0,90,0.00,,,-99.99,,2013-10-24 07:42:00,
2013-10-24 03:42:00,33.0,31.0,-100.00,North,0,9.0,11.0,92,0.00,,,-99.99,,2013-10-24 08:42:00,
2013-10-24 04:22:00,32.0,31.0,-100.00,North,5,10.0,12.0,94,0.00,,,-99.99,,2013-10-24 09:22:00,
2013-10-24 04:43:00,31.0,30.0,-100.00,North,5,8.0,11.0,95,0.00,,,-99.99,,2013-10-24 09:43:00,
2013-10-24 05:23:00,31.0,30.0,-100.00,North,0,6.0,9.0,97,0.00,,,-99.99,,2013-10-24 10:23:00,
2013-10-24 05:43:00,30.0,30.0,-100.00,NNE,20,6.0,7.0,98,0.00,,,-99.99,,2013-10-24 10:43:00,
2013-10-24 06:22:00,29.0,29.0,-100.00,North,0,7.0,9.0,99,0.00,,,-99.99,,2013-10-24 11:22:00,
2013-10-24 06:42:00,29.0,29.0,-100.00,North,0,6.0,9.0,99,0.00,,,-99.99,,2013-10-24 11:42:00,
2013-10-24 07:22:00,29.0,29.0,-100.00,North,0,7.0,9.0,99,0.00,,,-99.99,,2013-10-24 12:22:00,
2013-10-24 07:42:00,28.0,28.0,-100.00,North,10,4.0,7.0,99,0.00,,,-99.99,,2013-10-24 12:42:00,
2013-10-24 08:22:00,27.0,27.0,-100.00,North,5,3.0,5.0,99,0.00,,,-99.99,,2013-10-24 13:22:00,
2013-10-24 08:42:00,29.0,29.0,-100.00,NNW,335,0.0,3.0,99,0.00,,,-99.99,,2013-10-24 13:42:00,
2013-10-24 10:43:00,36.0,33.0,-100.00,North,10,7.0,12.0,87,0.00,,,-99.99,,2013-10-24 15:43:00,
2013-10-24 11:42:00,40.0,32.0,-100.00,North,0,12.0,15.0,73,0.00,,,-99.99,,2013-10-24 16:42:00,
2013-10-24 14:22:00,45.0,28.0,-100.00,North,0,7.0,13.0,52,0.00,,,-99.99,,2013-10-24 19:22:00,
2013-10-24 14:43:00,46.0,28.0,-100.00,North,5,12.0,17.0,49,0.00,,,-99.99,,2013-10-24 19:43:00,
2013-10-24 15:23:00,47.0,28.0,-100.00,North,5,9.0,13.0,47,0.00,,,-99.99,,2013-10-24 20:23:00,
2013-10-24 15:42:00,47.0,28.0,-100.00,North,10,6.0,14.0,47,0.00,,,-99.99,,2013-10-24 20:42:00,
2013-10-24 16:22:00,47.0,28.0,-100.00,NNE,15,10.0,16.0,46,0.00,,,-99.99,,2013-10-24 21:22:00,
2013-10-24 16:43:00,48.0,28.0,-100.00,North,10,8.0,15.0,45,0.00,,,-99.99,,2013-10-24 21:43:00,
2013-10-24 17:24:00,47.0,28.0,-100.00,NW,325,7.0,14.0,46,0.00,,,-99.99,,2013-10-24 22:24:00,
2013-10-24 17:43:00,47.0,28.0,-100.00,North,5,6.0,9.0,47,0.00,,,-99.99,,2013-10-24 22:43:00,